Time,TemperatureF,DewpointF,PressureIn,WindDirection,WindDirectionDegrees,WindSpeedMPH,WindSpeedGustMPH,Humidity,HourlyPrecipIn,Conditions,Clouds,dailyrainin,SoftwareType,DateUTC
2013-02-27 00:02:00,12.3,8.1,30.05,NW,315,0.0,0.0,83,0.00,,,0.01,Wunderground v.1.15,2013-02-27 06:02:00,
2013-02-27 00:07:00,12.1,7.9,30.04,NW,315,0.0,0.0,83,0.00,,,0.00,Wunderground v.1.15,2013-02-27 06:07:00,
2013-02-27 00:14:00,11.7,7.5,30.04,NW,315,0.0,0.0,83,0.00,,,0.00,Wunderground v.1.15,2013-02-27 06:14:00,
2013-02-27 00:20:00,11.6,7.4,30.04,NW,315,0.0,0.0,83,0.00,,,0.00,Wunderground v.1.15,2013-02-27 06:20:00,
2013-02-27 00:25:00,11.4,7.2,30.04,NW,315,0.0,0.0,83,0.00,,,0.00,Wunderground v.1.15,2013-02-27 06:25:00,
2013-02-27 00:31:00,11.1,6.9,30.04,NW,315,0.0,0.0,83,0.00,,,0.00,Wunderground v.1.15,2013-02-27 06:31:00,
2013-02-27 00:37:00,10.7,6.6,30.04,NW,315,0.0,0.0,83,0.00,,,0.00,Wunderground v.1.15,2013-02-27 06:37:00,
2013-02-27 00:44:00,10.5,6.4,30.04,NW,315,0.0,0.0,83,0.00,,,0.00,Wunderground v.1.15,2013-02-27 06:44:00,
2013-02-27 00:50:00,10.4,6.3,30.04,NW,315,0.0,0.0,83,0.00,,,0.00,Wunderground v.1.15,2013-02-27 06:50:00,
2013-02-27 00:56:00,10.0,5.9,30.04,NW,315,0.0,0.0,83,0.00,,,0.00,Wunderground v.1.15,2013-02-27 06:56:00,
2013-02-27 01:02:00,9.9,5.8,30.04,NW,315,0.0,0.0,83,0.00,,,0.00,Wunderground v.1.15,2013-02-27 07:02:00,
2013-02-27 01:09:00,9.7,5.6,30.04,NW,315,0.0,0.0,83,0.00,,,0.00,Wunderground v.1.15,2013-02-27 07:09:00,
2013-02-27 01:14:00,9.5,5.4,30.04,NW,315,0.0,0.0,83,0.00,,,0.00,Wunderground v.1.15,2013-02-27 07:14:00,
2013-02-27 01:20:00,9.2,4.8,30.04,NW,315,0.0,0.0,82,0.00,,,0.00,Wunderground v.1.15,2013-02-27 07:20:00,
2013-02-27 01:26:00,8.8,4.4,30.04,NW,315,0.0,0.0,82,0.00,,,0.00,Wunderground v.1.15,2013-02-27 07:26:00,
2013-02-27 01:31:00,8.6,4.2,30.04,NW,315,0.0,0.0,82,0.00,,,0.00,Wunderground v.1.15,2013-02-27 07:31:00,
2013-02-27 01:36:00,8.4,4.0,30.04,NW,315,0.0,0.0,82,0.00,,,0.00,Wunderground v.1.15,2013-02-27 07:36:00,
2013-02-27 01:42:00,8.3,3.9,30.04,NW,315,0.0,0.0,82,0.00,,,0.00,Wunderground v.1.15,2013-02-27 07:42:00,
2013-02-27 01:49:00,7.9,3.5,30.05,NW,315,0.0,1.0,82,0.00,,,0.00,Wunderground v.1.15,2013-02-27 07:49:00,
2013-02-27 01:55:00,7.7,3.1,30.05,NW,315,0.0,0.0,81,0.00,,,0.00,Wunderground v.1.15,2013-02-27 07:55:00,
2013-02-27 02:00:00,7.6,3.3,30.05,NW,315,0.0,0.0,82,0.00,,,0.00,Wunderground v.1.15,2013-02-27 08:00:00,
2013-02-27 02:05:00,7.6,3.3,30.05,NW,315,0.0,0.0,82,0.00,,,0.00,Wunderground v.1.15,2013-02-27 08:05:00,
2013-02-27 02:10:00,7.4,3.1,30.05,NW,315,0.0,0.0,82,0.00,,,0.00,Wunderground v.1.15,2013-02-27 08:10:00,
2013-02-27 02:15:00,7.4,3.1,30.05,NW,315,0.0,0.0,82,0.00,,,0.00,Wunderground v.1.15,2013-02-27 08:15:00,
2013-02-27 02:20:00,7.4,3.1,30.04,NW,315,0.0,0.0,82,0.00,,,0.00,Wunderground v.1.15,2013-02-27 08:20:00,
2013-02-27 02:25:00,7.0,2.4,30.04,NW,315,0.0,0.0,81,0.00,,,0.00,Wunderground v.1.15,2013-02-27 08:25:00,
2013-02-27 02:30:00,7.0,2.4,30.04,NW,315,0.0,0.0,81,0.00,,,0.00,Wunderground v.1.15,2013-02-27 08:30:00,
2013-02-27 02:35:00,6.9,2.3,30.04,NW,315,0.0,0.0,81,0.00,,,0.00,Wunderground v.1.15,2013-02-27 08:35:00,
2013-02-27 02:40:00,6.7,2.1,30.04,NW,315,0.0,0.0,81,0.00,,,0.00,Wunderground v.1.15,2013-02-27 08:40:00,
2013-02-27 02:45:00,6.7,2.4,30.04,NW,315,0.0,0.0,82,0.00,,,0.00,Wunderground v.1.15,2013-02-27 08:45:00,
2013-02-27 02:51:00,6.9,2.6,30.04,NW,315,0.0,0.0,82,0.00,,,0.00,Wunderground v.1.15,2013-02-27 08:51:00,
2013-02-27 02:56:00,6.9,2.6,30.04,NW,315,0.0,0.0,82,0.00,,,0.00,Wunderground v.1.15,2013-02-27 08:56:00,
2013-02-27 03:01:00,6.7,2.4,30.04,NW,315,0.0,0.0,82,0.00,,,0.00,Wunderground v.1.15,2013-02-27 09:01:00,
2013-02-27 03:06:00,6.7,2.4,30.04,NW,315,0.0,0.0,82,0.00,,,0.00,Wunderground v.1.15,2013-02-27 09:06:00,
2013-02-27 03:11:00,6.5,1.9,30.04,NW,315,0.0,0.0,81,0.00,,,0.00,Wunderground v.1.15,2013-02-27 09:11:00,
2013-02-27 03:16:00,6.3,1.7,30.04,NW,315,0.0,0.0,81,0.00,,,0.00,Wunderground v.1.15,2013-02-27 09:16:00,
2013-02-27 03:21:00,6.1,1.5,30.04,NW,315,0.0,0.0,81,0.00,,,0.00,Wunderground v.1.15,2013-02-27 09:21:00,
2013-02-27 03:26:00,6.1,1.5,30.04,NW,315,0.0,0.0,81,0.00,,,0.00,Wunderground v.1.15,2013-02-27 09:26:00,
2013-02-27 03:31:00,6.1,1.5,30.04,NW,315,0.0,0.0,81,0.00,,,0.00,Wunderground v.1.15,2013-02-27 09:31:00,
2013-02-27 03:36:00,6.1,1.5,30.04,NW,315,0.0,0.0,81,0.00,,,0.00,Wunderground v.1.15,2013-02-27 09:36:00,
2013-02-27 03:41:00,6.1,1.8,30.04,NW,315,0.0,0.0,82,0.00,,,0.00,Wunderground v.1.15,2013-02-27 09:41:00,
2013-02-27 03:46:00,6.3,2.0,30.04,NW,315,0.0,0.0,82,0.00,,,0.00,Wunderground v.1.15,2013-02-27 09:46:00,
2013-02-27 03:51:00,6.1,1.5,30.04,NW,315,0.0,0.0,81,0.00,,,0.00,Wunderground v.1.15,2013-02-27 09:51:00,
2013-02-27 03:56:00,6.1,1.5,30.04,NW,315,0.0,0.0,81,0.00,,,0.00,Wunderground v.1.15,2013-02-27 09:56:00,
2013-02-27 04:01:00,6.0,1.4,30.04,NW,315,0.0,0.0,81,0.00,,,0.00,Wunderground v.1.15,2013-02-27 10:01:00,
2013-02-27 04:06:00,6.0,1.4,30.04,NW,315,0.0,0.0,81,0.00,,,0.00,Wunderground v.1.15,2013-02-27 10:06:00,
2013-02-27 04:11:00,6.0,1.4,30.04,NW,315,0.0,1.0,81,0.00,,,0.00,Wunderground v.1.15,2013-02-27 10:11:00,
2013-02-27 04:16:00,6.0,1.4,30.04,NW,315,0.0,1.0,81,0.00,,,0.00,Wunderground v.1.15,2013-02-27 10:16:00,
2013-02-27 04:21:00,6.1,1.8,30.05,NW,315,0.0,0.0,82,0.00,,,0.00,Wunderground v.1.15,2013-02-27 10:21:00,
2013-02-27 04:26:00,6.5,2.4,30.05,NW,315,0.0,0.0,83,0.00,,,0.00,Wunderground v.1.15,2013-02-27 10:26:00,
2013-02-27 04:32:00,7.0,2.9,30.05,NW,315,0.0,0.0,83,0.00,,,0.00,Wunderground v.1.15,2013-02-27 10:32:00,
2013-02-27 04:37:00,7.4,3.6,30.05,NW,315,0.0,1.0,84,0.00,,,0.00,Wunderground v.1.15,2013-02-27 10:37:00,
2013-02-27 04:42:00,7.7,3.9,30.05,NW,315,0.0,0.0,84,0.00,,,0.00,Wunderground v.1.15,2013-02-27 10:42:00,
2013-02-27 04:47:00,7.9,4.1,30.05,NW,315,0.0,0.0,84,0.00,,,0.00,Wunderground v.1.15,2013-02-27 10:47:00,
2013-02-27 04:52:00,7.9,3.8,30.05,NW,315,0.0,0.0,83,0.00,,,0.00,Wunderground v.1.15,2013-02-27 10:52:00,
2013-02-27 04:57:00,8.1,4.3,30.05,NW,315,0.0,1.0,84,0.00,,,0.00,Wunderground v.1.15,2013-02-27 10:57:00,
2013-02-27 05:02:00,8.1,4.3,30.05,NW,315,0.0,0.0,84,0.00,,,0.00,Wunderground v.1.15,2013-02-27 11:02:00,
2013-02-27 05:08:00,8.3,4.5,30.05,NW,315,0.0,0.0,84,0.00,,,0.00,Wunderground v.1.15,2013-02-27 11:08:00,
2013-02-27 05:13:00,8.3,4.5,30.05,NW,315,0.0,0.0,84,0.00,,,0.00,Wunderground v.1.15,2013-02-27 11:13:00,
2013-02-27 05:18:00,8.1,4.0,30.05,NW,315,0.0,0.0,83,0.00,,,0.00,Wunderground v.1.15,2013-02-27 11:18:00,
2013-02-27 05:23:00,7.9,3.8,30.06,NW,315,0.0,0.0,83,0.00,,,0.00,Wunderground v.1.15,2013-02-27 11:23:00,
2013-02-27 05:28:00,7.6,3.3,30.06,NW,315,0.0,0.0,82,0.00,,,0.00,Wunderground v.1.15,2013-02-27 11:28:00,
2013-02-27 05:34:00,7.2,2.9,30.07,NW,315,0.0,0.0,82,0.00,,,0.00,Wunderground v.1.15,2013-02-27 11:34:00,
2013-02-27 05:39:00,7.0,2.7,30.07,NW,315,0.0,0.0,82,0.00,,,0.00,Wunderground v.1.15,2013-02-27 11:39:00,
2013-02-27 05:44:00,7.0,2.7,30.07,NW,315,0.0,0.0,82,0.00,,,0.00,Wunderground v.1.15,2013-02-27 11:44:00,
2013-02-27 05:49:00,6.9,2.6,30.07,NW,315,0.0,0.0,82,0.00,,,0.00,Wunderground v.1.15,2013-02-27 11:49:00,
2013-02-27 05:54:00,6.9,2.6,30.07,NW,315,0.0,0.0,82,0.00,,,0.00,Wunderground v.1.15,2013-02-27 11:54:00,
2013-02-27 06:00:00,6.9,2.6,30.07,NW,315,0.0,0.0,82,0.00,,,0.00,Wunderground v.1.15,2013-02-27 12:00:00,
2013-02-27 06:05:00,6.7,2.4,30.07,NW,315,0.0,0.0,82,0.00,,,0.00,Wunderground v.1.15,2013-02-27 12:05:00,
2013-02-27 06:10:00,6.5,2.2,30.07,NW,315,0.0,0.0,82,0.00,,,0.00,Wunderground v.1.15,2013-02-27 12:10:00,
2013-02-27 06:15:00,6.5,2.2,30.07,NW,315,0.0,0.0,82,0.00,,,0.00,Wunderground v.1.15,2013-02-27 12:15:00,
2013-02-27 06:20:00,6.5,2.2,30.08,NW,315,0.0,0.0,82,0.00,,,0.00,Wunderground v.1.15,2013-02-27 12:20:00,
2013-02-27 06:25:00,6.5,2.2,30.08,NW,315,0.0,0.0,82,0.00,,,0.00,Wunderground v.1.15,2013-02-27 12:25:00,
2013-02-27 06:30:00,6.5,2.4,30.08,NW,315,0.0,0.0,83,0.00,,,0.00,Wunderground v.1.15,2013-02-27 12:30:00,
2013-02-27 06:35:00,6.7,2.6,30.08,NW,315,1.0,1.0,83,0.00,,,0.00,Wunderground v.1.15,2013-02-27 12:35:00,
2013-02-27 06:40:00,6.9,2.8,30.08,NW,315,0.0,0.0,83,0.00,,,0.00,Wunderground v.1.15,2013-02-27 12:40:00,
2013-02-27 06:45:00,7.0,2.9,30.08,NW,315,0.0,0.0,83,0.00,,,0.00,Wunderground v.1.15,2013-02-27 12:45:00,
2013-02-27 06:50:00,7.0,2.9,30.08,NW,315,0.0,0.0,83,0.00,,,0.00,Wunderground v.1.15,2013-02-27 12:50:00,
2013-02-27 06:55:00,7.2,3.1,30.08,NW,315,0.0,0.0,83,0.00,,,0.00,Wunderground v.1.15,2013-02-27 12:55:00,
2013-02-27 07:00:00,7.2,3.1,30.08,NW,315,0.0,0.0,83,0.00,,,0.00,Wunderground v.1.15,2013-02-27 13:00:00,
2013-02-27 07:06:00,7.2,3.1,30.08,NW,315,0.0,0.0,83,0.00,,,0.00,Wunderground v.1.15,2013-02-27 13:06:00,
2013-02-27 07:11:00,7.2,3.1,30.08,NW,315,0.0,0.0,83,0.00,,,0.00,Wunderground v.1.15,2013-02-27 13:11:00,
2013-02-27 07:16:00,7.2,2.9,30.08,NW,315,0.0,0.0,82,0.00,,,0.00,Wunderground v.1.15,2013-02-27 13:16:00,
2013-02-27 07:21:00,7.0,2.7,30.09,NW,315,0.0,0.0,82,0.00,,,0.00,Wunderground v.1.15,2013-02-27 13:21:00,
2013-02-27 07:26:00,7.0,2.7,30.09,NW,315,0.0,0.0,82,0.00,,,0.00,Wunderground v.1.15,2013-02-27 13:26:00,
2013-02-27 07:31:00,7.2,2.9,30.09,NW,315,0.0,0.0,82,0.00,,,0.00,Wunderground v.1.15,2013-02-27 13:31:00,
2013-02-27 07:36:00,7.2,2.9,30.09,NW,315,0.0,0.0,82,0.00,,,0.00,Wunderground v.1.15,2013-02-27 13:36:00,
2013-02-27 07:41:00,7.4,3.1,30.09,NW,315,0.0,0.0,82,0.00,,,0.00,Wunderground v.1.15,2013-02-27 13:41:00,
2013-02-27 07:46:00,7.4,3.1,30.09,NW,315,0.0,0.0,82,0.00,,,0.00,Wunderground v.1.15,2013-02-27 13:46:00,
2013-02-27 07:51:00,7.6,3.3,30.09,NW,315,0.0,0.0,82,0.00,,,0.00,Wunderground v.1.15,2013-02-27 13:51:00,
2013-02-27 07:56:00,7.7,3.4,30.09,NW,315,0.0,0.0,82,0.00,,,0.00,Wunderground v.1.15,2013-02-27 13:56:00,
2013-02-27 08:01:00,7.9,3.5,30.09,NW,315,0.0,0.0,82,0.00,,,0.00,Wunderground v.1.15,2013-02-27 14:01:00,
2013-02-27 08:06:00,8.1,3.7,30.09,NW,315,0.0,0.0,82,0.00,,,0.00,Wunderground v.1.15,2013-02-27 14:06:00,
2013-02-27 08:11:00,8.4,4.0,30.09,NW,315,0.0,1.0,82,0.00,,,0.00,Wunderground v.1.15,2013-02-27 14:11:00,
2013-02-27 08:16:00,8.8,4.4,30.09,NW,315,0.0,1.0,82,0.00,,,0.00,Wunderground v.1.15,2013-02-27 14:16:00,
2013-02-27 08:21:00,9.0,4.4,30.10,NW,315,0.0,2.0,81,0.00,,,0.00,Wunderground v.1.15,2013-02-27 14:21:00,
2013-02-27 08:26:00,9.2,4.6,30.10,NW,315,0.0,2.0,81,0.00,,,0.00,Wunderground v.1.15,2013-02-27 14:26:00,
2013-02-27 08:31:00,9.5,4.8,30.10,NW,315,0.0,1.0,81,0.00,,,0.00,Wunderground v.1.15,2013-02-27 14:31:00,
2013-02-27 08:36:00,9.5,4.6,30.09,NW,315,0.0,1.0,80,0.00,,,0.00,Wunderground v.1.15,2013-02-27 14:36:00,
2013-02-27 08:41:00,9.3,4.1,30.09,NW,315,0.0,0.0,79,0.00,,,0.00,Wunderground v.1.15,2013-02-27 14:41:00,
2013-02-27 08:46:00,9.3,4.4,30.09,NW,315,0.0,0.0,80,0.00,,,0.00,Wunderground v.1.15,2013-02-27 14:46:00,
2013-02-27 08:51:00,9.3,4.4,30.10,NW,315,0.0,0.0,80,0.00,,,0.00,Wunderground v.1.15,2013-02-27 14:51:00,
2013-02-27 08:56:00,9.7,4.8,30.10,NW,315,0.0,0.0,80,0.00,,,0.00,Wunderground v.1.15,2013-02-27 14:56:00,
2013-02-27 09:02:00,10.0,5.1,30.10,NW,315,0.0,0.0,80,0.00,,,0.00,Wunderground v.1.15,2013-02-27 15:02:00,
2013-02-27 09:07:00,10.0,4.8,30.09,NW,315,0.0,1.0,79,0.00,,,0.00,Wunderground v.1.15,2013-02-27 15:07:00,
2013-02-27 09:12:00,9.7,4.2,30.09,NW,315,0.0,1.0,78,0.00,,,0.00,Wunderground v.1.15,2013-02-27 15:12:00,
2013-02-27 09:17:00,9.3,4.1,30.09,NW,315,0.0,1.0,79,0.00,,,0.00,Wunderground v.1.15,2013-02-27 15:17:00,
2013-02-27 09:22:00,9.5,4.3,30.10,NW,315,0.0,0.0,79,0.00,,,0.00,Wunderground v.1.15,2013-02-27 15:22:00,
2013-02-27 09:27:00,9.9,4.7,30.10,NW,315,0.0,1.0,79,0.00,,,0.00,Wunderground v.1.15,2013-02-27 15:27:00,
2013-02-27 09:33:00,9.7,4.2,30.10,NW,315,0.0,1.0,78,0.00,,,0.00,Wunderground v.1.15,2013-02-27 15:33:00,
2013-02-27 09:39:00,9.7,4.5,30.10,NW,315,0.0,1.0,79,0.00,,,0.00,Wunderground v.1.15,2013-02-27 15:39:00,
2013-02-27 09:44:00,9.9,4.7,30.10,NW,315,1.0,1.0,79,0.00,,,0.00,Wunderground v.1.15,2013-02-27 15:44:00,
2013-02-27 09:49:00,10.0,4.8,30.10,NW,315,0.0,1.0,79,0.00,,,0.00,Wunderground v.1.15,2013-02-27 15:49:00,
2013-02-27 09:55:00,10.2,5.0,30.10,NW,315,0.0,1.0,79,0.00,,,0.00,Wunderground v.1.15,2013-02-27 15:55:00,
2013-02-27 10:00:00,10.5,5.5,30.10,NW,315,1.0,1.0,80,0.00,,,0.00,Wunderground v.1.15,2013-02-27 16:00:00,
2013-02-27 10:05:00,11.1,6.1,30.09,NW,315,0.0,2.0,80,0.00,,,0.00,Wunderground v.1.15,2013-02-27 16:05:00,
2013-02-27 10:10:00,11.6,6.6,30.09,NW,315,1.0,1.0,80,0.00,,,0.00,Wunderground v.1.15,2013-02-27 16:10:00,
2013-02-27 10:15:00,12.1,7.1,30.09,NW,315,0.0,2.0,80,0.00,,,0.00,Wunderground v.1.15,2013-02-27 16:15:00,
2013-02-27 10:20:00,12.9,7.9,30.09,NW,315,1.0,1.0,80,0.00,,,0.00,Wunderground v.1.15,2013-02-27 16:20:00,
2013-02-27 10:25:00,13.8,9.0,30.09,NW,315,0.0,1.0,81,0.00,,,0.00,Wunderground v.1.15,2013-02-27 16:25:00,
2013-02-27 10:30:00,14.8,9.7,30.09,NW,315,0.0,0.0,80,0.00,,,0.00,Wunderground v.1.15,2013-02-27 16:30:00,
2013-02-27 10:35:00,15.7,10.3,30.09,NW,315,0.0,2.0,79,0.00,,,0.00,Wunderground v.1.15,2013-02-27 16:35:00,
2013-02-27 10:40:00,16.4,11.0,30.09,WNW,289,3.0,3.0,79,0.00,,,0.00,Wunderground v.1.15,2013-02-27 16:40:00,
2013-02-27 10:45:00,16.9,11.5,30.09,NW,314,1.0,3.0,79,0.00,,,0.00,Wunderground v.1.15,2013-02-27 16:45:00,
2013-02-27 10:50:00,17.0,11.6,30.09,NW,310,0.0,2.0,79,0.00,,,0.00,Wunderground v.1.15,2013-02-27 16:50:00,
2013-02-27 10:55:00,17.0,11.6,30.09,WNW,287,1.0,5.0,79,0.00,,,0.00,Wunderground v.1.15,2013-02-27 16:55:00,
2013-02-27 11:00:00,16.9,11.8,30.09,WNW,296,2.0,3.0,80,0.00,,,0.00,Wunderground v.1.15,2013-02-27 17:00:00,
2013-02-27 11:05:00,16.9,12.4,30.09,WNW,298,2.0,7.0,82,0.00,,,0.00,Wunderground v.1.15,2013-02-27 17:05:00,
2013-02-27 11:10:00,17.0,12.5,30.09,WNW,302,1.0,3.0,82,0.00,,,0.00,Wunderground v.1.15,2013-02-27 17:10:00,
2013-02-27 11:15:00,17.2,12.6,30.09,NW,310,1.0,4.0,82,0.00,,,0.00,Wunderground v.1.15,2013-02-27 17:15:00,
2013-02-27 11:20:00,17.3,12.5,30.09,NW,321,0.0,3.0,81,0.00,,,0.00,Wunderground v.1.15,2013-02-27 17:20:00,
2013-02-27 11:26:00,17.5,12.7,30.09,NW,310,0.0,4.0,81,0.00,,,0.00,Wunderground v.1.15,2013-02-27 17:26:00,
2013-02-27 11:31:00,17.8,13.0,30.09,NW,317,2.0,3.0,81,0.00,,,0.00,Wunderground v.1.15,2013-02-27 17:31:00,
2013-02-27 11:36:00,18.0,12.9,30.09,WNW,300,2.0,5.0,80,0.00,,,0.00,Wunderground v.1.15,2013-02-27 17:36:00,
2013-02-27 11:41:00,18.1,12.7,30.09,NW,308,3.0,3.0,79,0.00,,,0.00,Wunderground v.1.15,2013-02-27 17:41:00,
2013-02-27 11:46:00,18.3,12.9,30.09,NW,306,2.0,4.0,79,0.00,,,0.00,Wunderground v.1.15,2013-02-27 17:46:00,
2013-02-27 11:51:00,18.3,12.9,30.09,NNW,332,2.0,3.0,79,0.00,,,0.00,Wunderground v.1.15,2013-02-27 17:51:00,
2013-02-27 11:56:00,18.1,12.4,30.09,NNW,332,2.0,4.0,78,0.00,,,0.00,Wunderground v.1.15,2013-02-27 17:56:00,
2013-02-27 12:01:00,18.1,12.4,30.09,NW,323,3.0,3.0,78,0.00,,,0.00,Wunderground v.1.15,2013-02-27 18:01:00,
2013-02-27 12:06:00,18.1,12.4,30.09,NW,309,2.0,4.0,78,0.00,,,0.00,Wunderground v.1.15,2013-02-27 18:06:00,
2013-02-27 12:11:00,18.3,12.9,30.09,NW,313,3.0,3.0,79,0.00,,,0.00,Wunderground v.1.15,2013-02-27 18:11:00,
2013-02-27 12:16:00,18.6,12.9,30.09,NW,321,1.0,5.0,78,0.00,,,0.00,Wunderground v.1.15,2013-02-27 18:16:00,
2013-02-27 12:21:00,18.8,13.1,30.09,WNW,290,2.0,3.0,78,0.00,,,0.00,Wunderground v.1.15,2013-02-27 18:21:00,
2013-02-27 12:26:00,19.1,13.4,30.09,NW,308,2.0,5.0,78,0.00,,,0.00,Wunderground v.1.15,2013-02-27 18:26:00,
2013-02-27 12:31:00,19.4,13.7,30.09,NNW,331,2.0,3.0,78,0.00,,,0.00,Wunderground v.1.15,2013-02-27 18:31:00,
2013-02-27 12:36:00,19.7,13.7,30.07,NW,318,0.0,3.0,77,0.00,,,0.00,Wunderground v.1.15,2013-02-27 18:36:00,
2013-02-27 12:41:00,19.9,13.6,30.07,NW,316,3.0,4.0,76,0.00,,,0.00,Wunderground v.1.15,2013-02-27 18:41:00,
2013-02-27 12:46:00,19.9,13.6,30.07,NW,320,2.0,4.0,76,0.00,,,0.00,Wunderground v.1.15,2013-02-27 18:46:00,
2013-02-27 12:51:00,19.9,13.6,30.08,NW,318,1.0,6.0,76,0.00,,,0.00,Wunderground v.1.15,2013-02-27 18:51:00,
2013-02-27 12:56:00,19.9,13.6,30.08,NNW,327,2.0,6.0,76,0.00,,,0.00,Wunderground v.1.15,2013-02-27 18:56:00,
2013-02-27 13:01:00,20.0,13.6,30.08,WNW,302,5.0,5.0,76,0.00,,,0.00,Wunderground v.1.15,2013-02-27 19:01:00,
2013-02-27 13:06:00,20.2,14.1,30.08,NW,314,4.0,5.0,77,0.00,,,0.00,Wunderground v.1.15,2013-02-27 19:06:00,
2013-02-27 13:12:00,20.2,14.1,30.08,NW,309,1.0,5.0,77,0.00,,,0.00,Wunderground v.1.15,2013-02-27 19:12:00,
2013-02-27 13:17:00,20.2,13.8,30.08,NW,319,3.0,7.0,76,0.00,,,0.00,Wunderground v.1.15,2013-02-27 19:17:00,
2013-02-27 13:22:00,20.0,13.6,30.08,WNW,298,0.0,4.0,76,0.00,,,0.00,Wunderground v.1.15,2013-02-27 19:22:00,
2013-02-27 13:27:00,20.2,14.1,30.08,NNW,329,0.0,4.0,77,0.00,,,0.00,Wunderground v.1.15,2013-02-27 19:27:00,
2013-02-27 13:32:00,20.2,13.8,30.08,WNW,284,4.0,5.0,76,0.00,,,0.00,Wunderground v.1.15,2013-02-27 19:32:00,
2013-02-27 13:37:00,20.0,13.9,30.08,NW,311,4.0,5.0,77,0.00,,,0.00,Wunderground v.1.15,2013-02-27 19:37:00,
2013-02-27 13:42:00,20.3,14.2,30.08,NW,304,2.0,3.0,77,0.00,,,0.00,Wunderground v.1.15,2013-02-27 19:42:00,
2013-02-27 13:47:00,20.5,14.4,30.08,NW,316,2.0,5.0,77,0.00,,,0.00,Wunderground v.1.15,2013-02-27 19:47:00,
2013-02-27 13:52:00,20.6,14.5,30.07,WNW,298,2.0,4.0,77,0.00,,,0.00,Wunderground v.1.15,2013-02-27 19:52:00,
2013-02-27 13:57:00,21.0,14.9,30.07,WNW,299,2.0,4.0,77,0.00,,,0.00,Wunderground v.1.15,2013-02-27 19:57:00,
2013-02-27 14:02:00,21.1,14.4,30.07,WNW,302,3.0,5.0,75,0.00,,,0.00,Wunderground v.1.15,2013-02-27 20:02:00,
2013-02-27 14:07:00,21.0,14.6,30.07,NW,310,3.0,5.0,76,0.00,,,0.00,Wunderground v.1.15,2013-02-27 20:07:00,
2013-02-27 14:12:00,20.8,14.4,30.07,NW,309,4.0,4.0,76,0.00,,,0.00,Wunderground v.1.15,2013-02-27 20:12:00,
2013-02-27 14:17:00,20.8,14.4,30.07,WNW,287,0.0,10.0,76,0.00,,,0.00,Wunderground v.1.15,2013-02-27 20:17:00,
2013-02-27 14:22:00,21.1,14.7,30.08,NW,312,1.0,4.0,76,0.00,,,0.00,Wunderground v.1.15,2013-02-27 20:22:00,
2013-02-27 14:27:00,21.3,14.6,30.08,NW,313,3.0,5.0,75,0.00,,,0.00,Wunderground v.1.15,2013-02-27 20:27:00,
2013-02-27 14:32:00,21.4,15.0,30.08,NW,312,3.0,5.0,76,0.00,,,0.00,Wunderground v.1.15,2013-02-27 20:32:00,
2013-02-27 14:37:00,21.4,14.7,30.08,NW,309,4.0,10.0,75,0.00,,,0.00,Wunderground v.1.15,2013-02-27 20:37:00,
2013-02-27 14:42:00,21.3,14.6,30.08,West,275,5.0,9.0,75,0.00,,,0.00,Wunderground v.1.15,2013-02-27 20:42:00,
2013-02-27 14:47:00,21.1,15.0,30.08,NW,304,2.0,9.0,77,0.00,,,0.00,Wunderground v.1.15,2013-02-27 20:47:00,
2013-02-27 14:52:00,21.1,14.4,30.09,NW,304,3.0,6.0,75,0.00,,,0.00,Wunderground v.1.15,2013-02-27 20:52:00,
2013-02-27 14:58:00,21.0,14.9,30.09,NW,319,5.0,6.0,77,0.00,,,0.00,Wunderground v.1.15,2013-02-27 20:58:00,
2013-02-27 15:03:00,21.0,15.2,30.09,NW,306,3.0,4.0,78,0.00,,,0.00,Wunderground v.1.15,2013-02-27 21:03:00,
2013-02-27 15:08:00,21.1,15.0,30.09,NW,314,1.0,4.0,77,0.00,,,0.00,Wunderground v.1.15,2013-02-27 21:08:00,
2013-02-27 15:13:00,21.1,15.3,30.09,NW,310,3.0,6.0,78,0.00,,,0.00,Wunderground v.1.15,2013-02-27 21:13:00,
2013-02-27 15:18:00,21.1,15.0,30.09,WNW,294,2.0,8.0,77,0.00,,,0.00,Wunderground v.1.15,2013-02-27 21:18:00,
2013-02-27 15:23:00,21.0,15.2,30.09,NW,315,3.0,4.0,78,0.00,,,0.00,Wunderground v.1.15,2013-02-27 21:23:00,
2013-02-27 15:28:00,20.8,15.3,30.09,NW,313,1.0,5.0,79,0.00,,,0.00,Wunderground v.1.15,2013-02-27 21:28:00,
2013-02-27 15:33:00,20.8,15.3,30.09,NW,321,2.0,6.0,79,0.00,,,0.00,Wunderground v.1.15,2013-02-27 21:33:00,
2013-02-27 15:38:00,20.6,15.4,30.09,NW,306,2.0,6.0,80,0.00,,,0.00,Wunderground v.1.15,2013-02-27 21:38:00,
2013-02-27 15:43:00,20.5,15.3,30.09,NW,309,1.0,8.0,80,0.00,,,0.00,Wunderground v.1.15,2013-02-27 21:43:00,
2013-02-27 15:48:00,20.2,15.3,30.09,NW,313,3.0,8.0,81,0.00,,,0.00,Wunderground v.1.15,2013-02-27 21:48:00,
2013-02-27 15:53:00,20.0,15.4,30.09,NW,323,7.0,7.0,82,0.00,,,0.00,Wunderground v.1.15,2013-02-27 21:53:00,
2013-02-27 15:59:00,19.9,15.3,30.09,NW,321,2.0,7.0,82,0.00,,,0.00,Wunderground v.1.15,2013-02-27 21:59:00,
2013-02-27 16:04:00,20.0,15.7,30.10,NNW,334,0.0,7.0,83,0.00,,,0.00,Wunderground v.1.15,2013-02-27 22:04:00,
2013-02-27 16:10:00,20.0,15.4,30.10,NW,309,2.0,2.0,82,0.00,,,0.00,Wunderground v.1.15,2013-02-27 22:10:00,
2013-02-27 16:15:00,20.0,15.4,30.10,NW,321,1.0,5.0,82,0.00,,,0.00,Wunderground v.1.15,2013-02-27 22:15:00,
2013-02-27 16:20:00,20.0,15.4,30.10,NW,326,2.0,2.0,82,0.00,,,0.00,Wunderground v.1.15,2013-02-27 22:20:00,
2013-02-27 16:25:00,20.2,15.6,30.10,NW,309,3.0,5.0,82,0.00,,,0.00,Wunderground v.1.15,2013-02-27 22:25:00,
2013-02-27 16:30:00,20.2,15.3,30.10,WNW,302,0.0,3.0,81,0.00,,,0.00,Wunderground v.1.15,2013-02-27 22:30:00,
2013-02-27 16:35:00,20.3,15.4,30.10,NW,308,2.0,4.0,81,0.00,,,0.00,Wunderground v.1.15,2013-02-27 22:35:00,
2013-02-27 16:40:00,20.5,15.3,30.10,WNW,290,4.0,4.0,80,0.00,,,0.00,Wunderground v.1.15,2013-02-27 22:40:00,
2013-02-27 16:45:00,20.3,15.1,30.10,NW,325,3.0,9.0,80,0.00,,,0.00,Wunderground v.1.15,2013-02-27 22:45:00,
2013-02-27 16:50:00,20.3,15.1,30.10,NW,321,3.0,3.0,80,0.00,,,0.00,Wunderground v.1.15,2013-02-27 22:50:00,
2013-02-27 16:55:00,20.3,15.1,30.10,NW,319,1.0,5.0,80,0.00,,,0.00,Wunderground v.1.15,2013-02-27 22:55:00,
2013-02-27 17:00:00,20.3,15.1,30.10,North,355,2.0,2.0,80,0.00,,,0.00,Wunderground v.1.15,2013-02-27 23:00:00,
2013-02-27 17:05:00,20.3,15.1,30.11,NW,321,2.0,5.0,80,0.00,,,0.00,Wunderground v.1.15,2013-02-27 23:05:00,
2013-02-27 17:10:00,20.2,15.0,30.11,NW,308,0.0,2.0,80,0.00,,,0.00,Wunderground v.1.15,2013-02-27 23:10:00,
2013-02-27 17:15:00,20.2,15.0,30.11,WNW,298,1.0,5.0,80,0.00,,,0.00,Wunderground v.1.15,2013-02-27 23:15:00,
2013-02-27 17:21:00,20.0,14.8,30.11,NW,313,1.0,5.0,80,0.00,,,0.00,Wunderground v.1.15,2013-02-27 23:21:00,
2013-02-27 17:26:00,20.0,14.8,30.11,NW,311,5.0,5.0,80,0.00,,,0.00,Wunderground v.1.15,2013-02-27 23:26:00,
2013-02-27 17:31:00,20.0,14.8,30.11,NW,311,1.0,3.0,80,0.00,,,0.00,Wunderground v.1.15,2013-02-27 23:31:00,
2013-02-27 17:36:00,19.9,14.7,30.11,NW,318,0.0,3.0,80,0.00,,,0.00,Wunderground v.1.15,2013-02-27 23:36:00,
2013-02-27 17:41:00,19.7,14.5,30.11,North,349,0.0,3.0,80,0.00,,,0.00,Wunderground v.1.15,2013-02-27 23:41:00,
2013-02-27 17:46:00,19.7,14.5,30.11,NNW,331,3.0,3.0,80,0.00,,,0.00,Wunderground v.1.15,2013-02-27 23:46:00,
2013-02-27 17:51:00,19.5,14.3,30.12,NW,309,2.0,2.0,80,0.00,,,0.00,Wunderground v.1.15,2013-02-27 23:51:00,
2013-02-27 17:56:00,19.5,14.3,30.12,NW,315,0.0,3.0,80,0.00,,,0.00,Wunderground v.1.15,2013-02-27 23:56:00,
2013-02-27 18:01:00,19.4,14.2,30.12,NW,311,1.0,2.0,80,0.00,,,0.00,Wunderground v.1.15,2013-02-28 00:01:00,
2013-02-27 18:06:00,19.4,14.2,30.12,NW,316,2.0,3.0,80,0.00,,,0.00,Wunderground v.1.15,2013-02-28 00:06:00,
2013-02-27 18:11:00,19.2,14.3,30.12,NW,319,0.0,1.0,81,0.00,,,0.00,Wunderground v.1.15,2013-02-28 00:11:00,
2013-02-27 18:16:00,19.2,14.3,30.12,NW,306,1.0,2.0,81,0.00,,,0.00,Wunderground v.1.15,2013-02-28 00:16:00,
2013-02-27 18:22:00,19.1,14.2,30.13,NW,315,1.0,3.0,81,0.00,,,0.00,Wunderground v.1.15,2013-02-28 00:22:00,
2013-02-27 18:27:00,19.1,14.2,30.13,NW,315,0.0,3.0,81,0.00,,,0.00,Wunderground v.1.15,2013-02-28 00:27:00,
2013-02-27 18:32:00,19.1,14.2,30.13,NW,315,0.0,2.0,81,0.00,,,0.00,Wunderground v.1.15,2013-02-28 00:32:00,
2013-02-27 18:37:00,19.1,14.2,30.14,NW,315,2.0,2.0,81,0.00,,,0.00,Wunderground v.1.15,2013-02-28 00:37:00,
2013-02-27 18:42:00,18.9,14.0,30.14,NW,312,0.0,1.0,81,0.00,,,0.00,Wunderground v.1.15,2013-02-28 00:42:00,
2013-02-27 18:47:00,18.9,14.0,30.14,NW,313,0.0,2.0,81,0.00,,,0.00,Wunderground v.1.15,2013-02-28 00:47:00,
2013-02-27 18:52:00,18.9,14.0,30.14,NW,313,0.0,1.0,81,0.00,,,0.00,Wunderground v.1.15,2013-02-28 00:52:00,
2013-02-27 18:57:00,18.9,14.0,30.14,NW,313,0.0,1.0,81,0.00,,,0.00,Wunderground v.1.15,2013-02-28 00:57:00,
2013-02-27 19:03:00,18.8,13.9,30.14,NW,313,0.0,0.0,81,0.00,,,0.00,Wunderground v.1.15,2013-02-28 01:03:00,
2013-02-27 19:08:00,18.8,13.9,30.14,NW,313,0.0,1.0,81,0.00,,,0.00,Wunderground v.1.15,2013-02-28 01:08:00,
2013-02-27 19:13:00,18.6,14.0,30.14,NW,313,0.0,2.0,82,0.00,,,0.00,Wunderground v.1.15,2013-02-28 01:13:00,
2013-02-27 19:18:00,18.6,14.0,30.14,NW,313,0.0,2.0,82,0.00,,,0.00,Wunderground v.1.15,2013-02-28 01:18:00,
2013-02-27 19:23:00,18.4,13.8,30.14,NW,313,0.0,1.0,82,0.00,,,0.00,Wunderground v.1.15,2013-02-28 01:23:00,
2013-02-27 19:28:00,18.3,13.7,30.14,NW,313,1.0,2.0,82,0.00,,,0.00,Wunderground v.1.15,2013-02-28 01:28:00,
2013-02-27 19:33:00,18.3,13.7,30.14,NW,313,0.0,0.0,82,0.00,,,0.00,Wunderground v.1.15,2013-02-28 01:33:00,
2013-02-27 19:38:00,18.1,13.5,30.14,NW,313,0.0,1.0,82,0.00,,,0.00,Wunderground v.1.15,2013-02-28 01:38:00,
2013-02-27 19:43:00,18.1,13.5,30.14,NW,304,0.0,1.0,82,0.00,,,0.00,Wunderground v.1.15,2013-02-28 01:43:00,
2013-02-27 19:48:00,18.0,13.4,30.14,NW,304,0.0,1.0,82,0.00,,,0.00,Wunderground v.1.15,2013-02-28 01:48:00,
2013-02-27 19:53:00,17.7,13.1,30.14,NW,304,0.0,0.0,82,0.00,,,0.00,Wunderground v.1.15,2013-02-28 01:53:00,
2013-02-27 19:58:00,17.3,12.7,30.14,NW,304,0.0,0.0,82,0.00,,,0.00,Wunderground v.1.15,2013-02-28 01:58:00,
2013-02-27 20:03:00,17.0,12.5,30.14,NW,304,0.0,0.0,82,0.00,,,0.00,Wunderground v.1.15,2013-02-28 02:03:00,
2013-02-27 20:08:00,16.9,12.4,30.14,NW,304,0.0,0.0,82,0.00,,,0.00,Wunderground v.1.15,2013-02-28 02:08:00,
2013-02-27 20:13:00,16.7,12.4,30.14,NW,304,0.0,0.0,83,0.00,,,0.00,Wunderground v.1.15,2013-02-28 02:13:00,
2013-02-27 20:18:00,16.9,12.9,30.14,NW,304,0.0,0.0,84,0.00,,,0.00,Wunderground v.1.15,2013-02-28 02:18:00,
2013-02-27 20:23:00,16.9,12.9,30.14,NW,304,1.0,1.0,84,0.00,,,0.00,Wunderground v.1.15,2013-02-28 02:23:00,
2013-02-27 20:28:00,16.9,12.9,30.14,NW,304,0.0,1.0,84,0.00,,,0.00,Wunderground v.1.15,2013-02-28 02:28:00,
2013-02-27 20:33:00,16.9,13.2,30.14,NW,304,0.0,0.0,85,0.00,,,0.00,Wunderground v.1.15,2013-02-28 02:33:00,
2013-02-27 20:38:00,16.9,13.2,30.14,NW,304,0.0,0.0,85,0.00,,,0.00,Wunderground v.1.15,2013-02-28 02:38:00,
2013-02-27 20:43:00,17.0,13.3,30.14,NW,304,0.0,1.0,85,0.00,,,0.00,Wunderground v.1.15,2013-02-28 02:43:00,
2013-02-27 20:48:00,17.0,13.5,30.14,NW,304,0.0,1.0,86,0.00,,,0.00,Wunderground v.1.15,2013-02-28 02:48:00,
2013-02-27 20:55:00,17.2,13.7,30.14,NW,304,0.0,1.0,86,0.00,,,0.00,Wunderground v.1.15,2013-02-28 02:55:00,
2013-02-27 21:00:00,17.0,13.3,30.14,NW,304,0.0,0.0,85,0.00,,,0.00,Wunderground v.1.15,2013-02-28 03:00:00,
2013-02-27 21:05:00,16.7,13.0,30.14,NW,304,0.0,0.0,85,0.00,,,0.00,Wunderground v.1.15,2013-02-28 03:05:00,
2013-02-27 21:10:00,16.5,12.8,30.14,NW,304,0.0,0.0,85,0.00,,,0.00,Wunderground v.1.15,2013-02-28 03:10:00,
2013-02-27 21:15:00,16.2,12.5,30.14,NW,304,0.0,0.0,85,0.00,,,0.00,Wunderground v.1.15,2013-02-28 03:15:00,
2013-02-27 21:20:00,16.2,12.7,30.14,NW,304,0.0,0.0,86,0.00,,,0.00,Wunderground v.1.15,2013-02-28 03:20:00,
2013-02-27 21:25:00,16.4,12.9,30.14,NW,304,0.0,0.0,86,0.00,,,0.00,Wunderground v.1.15,2013-02-28 03:25:00,
2013-02-27 21:30:00,16.7,13.5,30.14,NW,304,0.0,2.0,87,0.00,,,0.00,Wunderground v.1.15,2013-02-28 03:30:00,
2013-02-27 21:35:00,17.2,14.3,30.14,NW,308,0.0,2.0,88,0.00,,,0.00,Wunderground v.1.15,2013-02-28 03:35:00,
2013-02-27 21:40:00,17.5,14.3,30.14,NW,308,0.0,0.0,87,0.00,,,0.00,Wunderground v.1.15,2013-02-28 03:40:00,
2013-02-27 21:45:00,17.7,14.5,30.14,NW,312,0.0,1.0,87,0.00,,,0.00,Wunderground v.1.15,2013-02-28 03:45:00,
2013-02-27 21:50:00,17.8,14.6,30.15,NW,312,0.0,1.0,87,0.00,,,0.00,Wunderground v.1.15,2013-02-28 03:50:00,
2013-02-27 21:56:00,18.0,14.8,30.15,NW,312,0.0,1.0,87,0.00,,,0.00,Wunderground v.1.15,2013-02-28 03:56:00,
2013-02-27 22:01:00,18.0,14.8,30.15,NW,312,2.0,2.0,87,0.00,,,0.00,Wunderground v.1.15,2013-02-28 04:01:00,
2013-02-27 22:06:00,18.3,15.1,30.15,NW,313,0.0,4.0,87,0.00,,,0.00,Wunderground v.1.15,2013-02-28 04:06:00,
2013-02-27 22:11:00,18.4,15.2,30.15,NW,313,0.0,0.0,87,0.00,,,0.00,Wunderground v.1.15,2013-02-28 04:11:00,
2013-02-27 22:16:00,18.6,15.4,30.15,NW,313,0.0,1.0,87,0.00,,,0.00,Wunderground v.1.15,2013-02-28 04:16:00,
2013-02-27 22:21:00,18.6,15.4,30.14,NW,313,0.0,0.0,87,0.00,,,0.00,Wunderground v.1.15,2013-02-28 04:21:00,
2013-02-27 22:26:00,18.6,15.4,30.14,NW,313,0.0,0.0,87,0.00,,,0.00,Wunderground v.1.15,2013-02-28 04:26:00,
2013-02-27 22:31:00,18.8,15.6,30.14,NW,313,0.0,0.0,87,0.00,,,0.00,Wunderground v.1.15,2013-02-28 04:31:00,
2013-02-27 22:36:00,18.9,15.4,30.14,NW,313,0.0,0.0,86,0.00,,,0.00,Wunderground v.1.15,2013-02-28 04:36:00,
2013-02-27 22:41:00,18.9,15.4,30.14,NW,313,0.0,0.0,86,0.00,,,0.00,Wunderground v.1.15,2013-02-28 04:41:00,
2013-02-27 22:46:00,19.1,15.6,30.14,NW,313,0.0,0.0,86,0.00,,,0.00,Wunderground v.1.15,2013-02-28 04:46:00,
2013-02-27 22:51:00,19.2,15.7,30.14,NW,313,0.0,1.0,86,0.00,,,0.00,Wunderground v.1.15,2013-02-28 04:51:00,
2013-02-27 22:56:00,19.4,15.9,30.14,NW,313,0.0,2.0,86,0.00,,,0.00,Wunderground v.1.15,2013-02-28 04:56:00,
2013-02-27 23:00:00,19.5,16.0,30.14,NW,313,0.0,0.0,86,0.00,,,0.00,Wunderground v.1.15,2013-02-28 05:00:00,
2013-02-27 23:05:00,19.7,16.2,30.14,NW,313,0.0,0.0,86,0.00,,,0.00,Wunderground v.1.15,2013-02-28 05:05:00,
2013-02-27 23:10:00,19.7,16.2,30.14,NW,313,0.0,0.0,86,0.00,,,0.00,Wunderground v.1.15,2013-02-28 05:10:00,
2013-02-27 23:16:00,19.5,15.7,30.14,NW,313,0.0,0.0,85,0.00,,,0.00,Wunderground v.1.15,2013-02-28 05:16:00,
2013-02-27 23:21:00,19.4,15.6,30.14,NW,313,0.0,0.0,85,0.00,,,0.00,Wunderground v.1.15,2013-02-28 05:21:00,
2013-02-27 23:26:00,19.4,15.6,30.14,NW,313,0.0,0.0,85,0.00,,,0.00,Wunderground v.1.15,2013-02-28 05:26:00,
2013-02-27 23:31:00,19.2,15.4,30.14,NW,313,0.0,0.0,85,0.00,,,0.00,Wunderground v.1.15,2013-02-28 05:31:00,
2013-02-27 23:36:00,19.2,15.4,30.14,NW,313,0.0,0.0,85,0.00,,,0.00,Wunderground v.1.15,2013-02-28 05:36:00,
2013-02-27 23:41:00,19.1,15.3,30.14,NW,313,0.0,0.0,85,0.00,,,0.00,Wunderground v.1.15,2013-02-28 05:41:00,
2013-02-27 23:46:00,18.9,15.1,30.14,NW,313,0.0,0.0,85,0.00,,,0.00,Wunderground v.1.15,2013-02-28 05:46:00,
2013-02-27 23:51:00,18.9,15.1,30.14,NW,313,0.0,0.0,85,0.00,,,0.00,Wunderground v.1.15,2013-02-28 05:51:00,
2013-02-27 23:56:00,18.8,15.0,30.14,NW,313,0.0,0.0,85,0.00,,,0.00,Wunderground v.1.15,2013-02-28 05:56:00,